createdAt,value
2022-10-19T00:04:21.030Z,102967.44
2022-10-19T00:09:22.705Z,102974.16
2022-10-19T00:14:24.813Z,102969.53
2022-10-19T00:19:27.464Z,102958.22
2022-10-19T00:24:28.933Z,102952.50
2022-10-19T00:29:30.429Z,102956.34
2022-10-19T00:34:31.875Z,102957.91
2022-10-19T00:39:33.348Z,102945.31
2022-10-19T00:44:34.798Z,102961.31
2022-10-19T00:49:41.459Z,102950.97
2022-10-19T00:54:46.041Z,102946.59
2022-10-19T00:59:47.840Z,102946.88
2022-10-19T01:04:52.065Z,102947.69
2022-10-19T01:09:54.469Z,102937.78
2022-10-19T01:15:08.232Z,102936.09
2022-10-19T01:20:34.566Z,102928.69
2022-10-19T01:25:48.062Z,102934.94
2022-10-19T01:31:18.951Z,102939.53
2022-10-19T01:36:33.448Z,102937.72
2022-10-19T01:41:56.205Z,102941.09
2022-10-19T01:47:06.847Z,102937.38
2022-10-19T01:52:11.513Z,102929.53
2022-10-19T01:57:17.134Z,102925.38
2022-10-19T02:02:20.323Z,102919.50
2022-10-19T02:07:24.661Z,102922.75
2022-10-19T02:12:28.472Z,102926.03
2022-10-19T02:17:34.517Z,102917.31
2022-10-19T02:22:36.616Z,102916.06
2022-10-19T02:27:43.340Z,102913.78
2022-10-19T02:32:44.866Z,102908.72
2022-10-19T02:37:46.458Z,102910.91
2022-10-19T02:43:01.645Z,102907.63
2022-10-19T02:48:08.661Z,102911.75
2022-10-19T02:53:10.107Z,102910.72
2022-10-19T02:58:11.588Z,102910.72
2022-10-19T03:03:13.023Z,102909.84
2022-10-19T03:08:14.489Z,102908.69
2022-10-19T03:13:15.961Z,102908.81
2022-10-19T03:18:17.686Z,102903.16
2022-10-19T03:23:19.143Z,102890.31
2022-10-19T03:28:20.594Z,102886.53
2022-10-19T03:33:22.419Z,102883.69
2022-10-19T03:38:23.899Z,102884.69
2022-10-19T03:43:25.344Z,102891.56
2022-10-19T03:48:27.975Z,102879.81
2022-10-19T03:53:33.096Z,102885.50
2022-10-19T03:58:37.255Z,102881.50
2022-10-19T04:03:38.786Z,102877.66
2022-10-19T04:08:40.460Z,102882.03
2022-10-19T04:13:41.911Z,102888.97
2022-10-19T04:18:43.410Z,102881.78
2022-10-19T04:23:44.879Z,102883.00
2022-10-19T04:28:46.648Z,102867.09
2022-10-19T04:33:48.158Z,102881.91
2022-10-19T04:38:49.722Z,102887.03
2022-10-19T04:43:59.041Z,102888.66
2022-10-19T04:49:00.601Z,102878.53
2022-10-19T04:54:04.046Z,102873.50
2022-10-19T04:59:05.530Z,102866.94
2022-10-19T05:04:07.000Z,102865.03
2022-10-19T05:09:08.433Z,102874.41
2022-10-19T05:14:09.882Z,102888.44
2022-10-19T05:19:14.032Z,102879.75
2022-10-19T05:24:15.466Z,102872.75
2022-10-19T05:29:17.009Z,102871.28
2022-10-19T05:34:18.568Z,102865.34
2022-10-19T05:39:20.030Z,102870.78
2022-10-19T05:44:23.842Z,102873.31
2022-10-19T05:49:25.370Z,102869.44
2022-10-19T05:54:28.505Z,102873.19
2022-10-19T05:59:30.273Z,102870.25
2022-10-19T06:04:33.468Z,102860.78
2022-10-19T06:09:36.477Z,102874.63
2022-10-19T06:14:38.045Z,102882.94
2022-10-19T06:19:39.550Z,102880.81
2022-10-19T06:24:41.136Z,102893.91
2022-10-19T06:29:42.604Z,102880.09
2022-10-19T06:34:44.132Z,102894.78
2022-10-19T06:39:45.654Z,102897.03
2022-10-19T06:44:47.215Z,102904.50
2022-10-19T06:49:48.642Z,102898.41
2022-10-19T06:54:50.106Z,102905.25
2022-10-19T06:59:53.016Z,102908.38
2022-10-19T07:04:55.255Z,102892.34
2022-10-19T07:09:56.797Z,102887.72
2022-10-19T07:14:58.313Z,102887.34
2022-10-19T07:19:59.765Z,102893.22
2022-10-19T07:25:01.205Z,102887.34
2022-10-19T07:30:02.956Z,102889.47
2022-10-19T07:35:04.844Z,102885.72
2022-10-19T07:40:06.771Z,102869.41
2022-10-19T07:45:08.437Z,102882.31
2022-10-19T07:50:09.925Z,102868.31
2022-10-19T07:55:11.429Z,102877.81
2022-10-19T08:00:13.206Z,102891.03
2022-10-19T08:05:15.175Z,102884.69
2022-10-19T08:10:16.962Z,102877.88
2022-10-19T08:15:18.417Z,102896.28
2022-10-19T08:20:20.073Z,102895.88
2022-10-19T08:25:21.685Z,102899.34
2022-10-19T08:30:23.153Z,102889.75
2022-10-19T08:35:24.618Z,102889.25
2022-10-19T08:40:30.159Z,102901.69
2022-10-19T08:50:49.079Z,102895.44
2022-10-19T08:56:49.215Z,102886.84
2022-10-19T09:02:26.309Z,102882.94
2022-10-19T09:07:31.185Z,102874.13
2022-10-19T09:12:40.109Z,102869.13
2022-10-19T09:17:41.697Z,102854.09
2022-10-19T09:22:44.079Z,102851.94
2022-10-19T09:27:48.722Z,102855.16
2022-10-19T09:32:58.712Z,102839.31
2022-10-19T09:38:00.727Z,102845.53
2022-10-19T09:43:19.211Z,102835.56
2022-10-19T09:48:29.877Z,102827.81
2022-10-19T09:53:31.436Z,102830.84
2022-10-19T09:58:33.806Z,102838.22
2022-10-19T10:03:40.692Z,102845.72
2022-10-19T10:08:58.879Z,102841.88
2022-10-19T10:14:18.521Z,102834.97
2022-10-19T10:19:23.221Z,102835.28
2022-10-19T10:24:33.366Z,102830.25
2022-10-19T10:29:39.305Z,102815.69
2022-10-19T10:34:50.601Z,102827.66
2022-10-19T10:39:58.951Z,102817.59
2022-10-19T10:45:04.729Z,102820.13
2022-10-19T10:50:06.895Z,102807.84
2022-10-19T10:55:08.279Z,102806.06
2022-10-19T11:00:13.962Z,102801.00
2022-10-19T11:05:23.767Z,102792.56
2022-10-19T11:10:36.383Z,102788.78
2022-10-19T11:15:51.396Z,102792.38
2022-10-19T11:21:04.445Z,102774.84
2022-10-19T11:26:14.912Z,102763.19
2022-10-19T11:31:22.240Z,102751.31
2022-10-19T11:36:42.722Z,102733.41
2022-10-19T11:42:00.185Z,102734.16
2022-10-19T11:47:17.142Z,102710.50
2022-10-19T11:52:21.324Z,102702.91
2022-10-19T11:58:15.453Z,102698.09
2022-10-19T12:03:31.704Z,102689.88
2022-10-19T12:08:39.706Z,102669.75
2022-10-19T12:13:48.159Z,102652.03
2022-10-19T12:18:53.469Z,102644.41
2022-10-19T12:23:57.549Z,102639.09
2022-10-19T12:29:01.821Z,102636.59
2022-10-19T12:34:06.091Z,102630.84
2022-10-19T12:39:32.021Z,102620.56
2022-10-19T12:45:02.623Z,102611.91
2022-10-19T12:50:05.095Z,102573.56
2022-10-19T12:55:23.436Z,102564.91
2022-10-19T13:00:28.317Z,102552.22
2022-10-19T13:05:31.217Z,102562.03
2022-10-19T13:10:33.668Z,102550.78
2022-10-19T13:15:35.067Z,102546.06
2022-10-19T13:25:42.733Z,102534.50
2022-10-19T13:30:44.590Z,102533.47
2022-10-19T13:35:46.964Z,102520.06
2022-10-19T13:40:48.729Z,102516.19
2022-10-19T13:46:01.665Z,102516.59
2022-10-19T13:51:24.625Z,102497.00
2022-10-19T13:56:32.601Z,102489.91
2022-10-19T14:02:01.975Z,102491.94
2022-10-19T14:07:24.446Z,102495.25
2022-10-19T14:12:28.973Z,102486.88
2022-10-19T14:17:34.156Z,102489.63
2022-10-19T14:22:36.401Z,102478.66
2022-10-19T14:27:38.530Z,102481.84
2022-10-19T14:37:46.730Z,102485.75
2022-10-19T14:42:48.821Z,102502.19
2022-10-19T14:48:01.462Z,102503.06
2022-10-19T14:53:18.998Z,102496.56
2022-10-19T14:58:23.811Z,102481.25
2022-10-19T15:03:30.288Z,102477.16
2022-10-19T15:08:37.256Z,102470.81
2022-10-19T15:13:42.629Z,102460.03
2022-10-19T15:18:49.268Z,102457.72
2022-10-19T15:23:52.641Z,102457.56
2022-10-19T15:29:06.716Z,102439.50
2022-10-19T15:34:22.885Z,102444.53
2022-10-19T15:39:39.806Z,102426.94
2022-10-19T15:44:44.033Z,102407.06
2022-10-19T15:49:45.782Z,102408.59
2022-10-19T15:54:51.454Z,102407.47
2022-10-19T15:59:53.783Z,102399.41
2022-10-19T16:04:55.375Z,102372.91
2022-10-19T16:09:57.574Z,102363.97
2022-10-19T16:14:59.019Z,102368.31
2022-10-19T16:20:00.471Z,102368.31
2022-10-19T16:25:01.975Z,102357.78
2022-10-19T16:30:04.474Z,102354.44
2022-10-19T16:35:08.353Z,102353.00
2022-10-19T16:40:10.354Z,102343.19
2022-10-19T16:45:11.911Z,102359.03
2022-10-19T16:50:13.449Z,102351.97
2022-10-19T16:55:14.941Z,102355.72
2022-10-19T17:00:16.411Z,102345.78
2022-10-19T17:05:17.925Z,102348.63
2022-10-19T17:10:19.426Z,102349.78
2022-10-19T17:15:41.953Z,102342.28
2022-10-19T17:20:42.961Z,102317.53
2022-10-19T17:25:48.958Z,102309.63
2022-10-19T17:30:52.271Z,102294.50
2022-10-19T17:35:53.748Z,102289.19
2022-10-19T17:40:55.208Z,102288.28
2022-10-19T17:46:01.248Z,102284.81
2022-10-19T17:51:07.191Z,102297.94
2022-10-19T17:56:09.548Z,102282.81
2022-10-19T18:01:11.905Z,102287.25
2022-10-19T18:06:14.906Z,102297.91
2022-10-19T18:11:19.362Z,102283.91
2022-10-19T18:16:24.412Z,102293.25
2022-10-19T18:21:30.044Z,102298.72
2022-10-19T18:26:33.593Z,102305.31
2022-10-19T18:31:39.010Z,102305.72
2022-10-19T18:36:40.489Z,102304.41
2022-10-19T18:41:42.645Z,102310.63
2022-10-19T18:46:45.378Z,102303.25
2022-10-19T18:51:50.751Z,102314.72
2022-10-19T18:56:55.811Z,102293.16
2022-10-19T19:01:57.371Z,102256.56
2022-10-19T19:06:58.916Z,102251.25
2022-10-19T19:12:01.149Z,102241.72
2022-10-19T19:17:02.619Z,102237.25
2022-10-19T19:22:08.616Z,102226.47
2022-10-19T19:27:10.402Z,102215.69
2022-10-19T19:32:11.851Z,102220.16
2022-10-19T19:37:13.370Z,102224.00
2022-10-19T19:42:14.894Z,102199.72
2022-10-19T19:47:19.266Z,102219.09
2022-10-19T19:52:20.869Z,102198.53
2022-10-19T19:57:22.583Z,102178.97
2022-10-19T20:02:24.057Z,102164.72
2022-10-19T20:07:26.991Z,102138.34
2022-10-19T20:12:29.291Z,102147.38
2022-10-19T20:17:30.771Z,102139.75
2022-10-19T20:22:32.383Z,102140.16
2022-10-19T20:27:37.023Z,102131.38
2022-10-19T20:32:38.952Z,102124.34
2022-10-19T20:37:40.682Z,102109.09
2022-10-19T20:42:43.829Z,102108.22
2022-10-19T20:47:45.269Z,102121.00
2022-10-19T20:52:46.723Z,102101.91
2022-10-19T20:57:48.212Z,102100.19
2022-10-19T21:02:49.716Z,102072.91
2022-10-19T21:07:51.186Z,102078.34
2022-10-19T21:12:52.640Z,102068.28
2022-10-19T21:17:54.090Z,102061.38
2022-10-19T21:22:55.916Z,102056.34
2022-10-19T21:27:57.346Z,102052.16
2022-10-19T21:32:58.955Z,102063.22
2022-10-19T21:38:00.727Z,102063.47
2022-10-19T21:43:02.273Z,102049.97
2022-10-19T21:48:03.884Z,102052.69
2022-10-19T21:53:05.404Z,102059.88
2022-10-19T21:58:06.935Z,102058.31
2022-10-19T22:03:08.576Z,102049.25
2022-10-19T22:08:10.076Z,102037.19
2022-10-19T22:13:11.535Z,102035.22
2022-10-19T22:18:13.046Z,102026.28
2022-10-19T22:23:14.494Z,102030.00
2022-10-19T22:28:15.981Z,102031.53
2022-10-19T22:33:17.447Z,102015.63
2022-10-19T22:38:18.943Z,102019.16
2022-10-19T22:43:20.493Z,102014.97
2022-10-19T22:48:21.982Z,101997.16
2022-10-19T22:53:24.456Z,101985.66
2022-10-19T22:58:25.993Z,101980.88
2022-10-19T23:03:27.484Z,101979.13
2022-10-19T23:08:29.072Z,101971.25
2022-10-19T23:13:30.605Z,101966.50
2022-10-19T23:18:33.819Z,101965.50
2022-10-19T23:23:36.912Z,101955.59
2022-10-19T23:28:40.549Z,101949.91
2022-10-19T23:33:42.969Z,101942.44
2022-10-19T23:38:45.989Z,101926.38
2022-10-19T23:43:48.058Z,101914.59
2022-10-19T23:48:49.554Z,101895.50
2022-10-19T23:53:52.485Z,101886.31
2022-10-19T23:58:54.506Z,101876.41
